Latest Coastal Weather Observations for Geelong Racecourse

IDV60701

Issued at 7:05 pm EST Friday 25 April 2014 (issued every 10 minutes, with the page automatically refreshed every 10 minutes)

About coastal observations | Map of coastal stations | Coastal observations for VIC | Marine services | Other Formats
Station Details ID: 087184 Name: GEELONG RACECOURSE Lat: -38.17 Lon: 144.38 Height: 12.9 m
Data from the previous 72 hours. | See also: Recent months at Geelong Racecourse
Date/Time
EST
Temp

°C
Wind Pressure Rain
since 9am
mm
Weather Cloud Vis
km
Sea
Height
m
Swell
Dir
 
Speed
knots
Gust
knots
hPa Trend Height
m
Period
s
Dir
25/07:00pm 16.1 NNW 8 11 1013.2 - 0.2 - - - - - - -
25/06:30pm 15.8 N 6 10 1013.0 - 0.2 - - - - - - -
25/06:00pm 14.6 N 3 7 1012.7 - 0.2 - - - - - - -
25/05:30pm 15.1 N 3 4 1012.9 - 0.2 - - - - - - -
25/05:00pm 16.2 N 3 4 1012.8 - 0.2 - - - - - - -
25/04:30pm 17.4 NNE 3 4 1012.6 - 0.2 - - - - - - -
25/04:00pm 18.2 NE 1 3 1012.5 - 0.2 - - - - - - -
25/03:30pm 17.8 NE 3 5 1012.9 - 0.2 - - - - - - -
25/03:00pm 18.3 N 5 7 1013.4 - 0.2 - - - - - - -
25/02:30pm 17.9 NNE 4 6 1014.0 - 0.2 - - - - - - -
25/02:00pm 17.1 NNE 4 6 1014.4 - 0.2 - - - - - - -
25/01:30pm 16.3 NE 4 6 1014.9 - 0.0 - - - - - - -
25/01:00pm 15.6 NE 4 7 1015.9 - 0.0 - - - - - - -
25/12:30pm 15.1 NE 5 8 1016.6 - 0.0 - - - - - - -
25/12:00pm 14.6 ENE 5 6 1017.3 - 0.0 - - - - - - -
25/11:30am 14.1 ENE 6 9 1018.2 - 0.0 - - - - - - -
25/11:00am 13.9 NNE 6 8 1018.6 - 0.0 - - - - - - -
25/10:30am 13.6 NNE 6 9 1019.1 - 0.0 - - - - - - -
25/10:00am 12.8 N 4 8 1019.5 - 0.0 - - - - - - -
25/09:30am 12.1 N 4 5 1019.7 - 0.0 - - - - - - -
25/09:00am 10.8 N 4 6 1020.1 - 0.0 - - - - - - -
25/08:30am 8.8 NW 2 2 1020.6 - 0.0 - - - - - - -
25/08:00am 6.9 NNW 2 3 1020.5 - 0.0 - - - - - - -
25/07:30am 4.7 NW 2 3 1020.5 - 0.0 - - - - - - -
25/07:00am 4.2 NW 4 5 1020.6 - 0.0 - - - - - - -
25/06:30am 4.1 NW 3 4 1020.6 - 0.0 - - - - - - -
25/06:00am 3.9 NNW 3 4 1020.8 - 0.0 - - - - - - -
25/05:30am 4.1 NNW 1 3 1020.9 - 0.0 - - - - - - -
25/05:00am 4.4 CALM 0 0 1020.8 - 0.0 - - - - - - -
25/04:30am 4.7 NW 2 5 1020.6 - 0.0 - - - - - - -
25/04:00am 4.5 WNW 1 2 1020.4 - 0.0 - - - - - - -
25/03:30am 5.3 WNW 2 3 1020.7 - 0.0 - - - - - - -
25/03:00am 5.3 NW 4 5 1020.9 - 0.0 - - - - - - -
25/02:30am 5.8 WNW 3 4 1021.1 - 0.0 - - - - - - -
25/02:00am 5.8 WNW 2 3 1021.2 - 0.0 - - - - - - -
25/01:30am 6.2 WNW 1 1 1021.1 - 0.0 - - - - - - -
25/01:00am 6.4 WNW 2 2 1021.1 - 0.0 - - - - - - -
25/12:30am 7.3 WNW 2 3 1021.3 - 0.0 - - - - - - -
25/12:00am 7.6 W 2 2 1021.4 - 0.0 - - - - - - -
 
Date/Time
EST
Temp

°C
Wind Pressure Rain
since 9am
mm
Weather Cloud Vis
km
Sea
Height
m
Swell
Dir
 
Speed
knots
Gust
knots
hPa Trend Height
m
Period
s
Dir
24/11:30pm 7.9 WSW 2 3 1021.7 - 0.0 - - - - - - -
24/11:00pm 8.5 WSW 4 5 1021.7 - 0.0 - - - - - - -
24/10:30pm 9.8 WSW 4 6 1021.9 - 0.0 - - - - - - -
24/10:00pm 9.4 WSW 5 6 1022.0 - 0.0 - - - - - - -
24/09:30pm 9.6 WSW 4 5 1021.8 - 0.0 - - - - - - -
24/09:00pm 8.3 WSW 3 5 1021.5 - 0.0 - - - - - - -
24/08:30pm 8.4 WSW 3 4 1021.2 - 0.0 - - - - - - -
24/08:00pm 9.4 WSW 3 4 1020.8 - 0.0 - - - - - - -
24/07:30pm 9.9 SSW 2 3 1020.6 - 0.0 - - - - - - -
24/07:00pm 10.4 SSW 2 3 1020.3 - 0.0 - - - - - - -
24/06:30pm 10.7 SSW 3 4 1020.0 - 0.0 - - - - - - -
24/06:00pm 11.7 SSW 5 7 1019.4 - 0.0 - - - - - - -
24/05:30pm 12.8 S 7 10 1018.9 - 0.0 - - - - - - -
24/05:00pm 13.8 S 9 13 1018.6 - 0.0 - - - - - - -
24/04:30pm 14.0 S 10 13 1018.3 - 0.0 - - - - - - -
24/04:00pm 15.2 SSW 8 11 1018.1 - 0.0 - - - - - - -
24/03:30pm 14.4 S 10 14 1017.9 - 0.0 - - - - - - -
24/03:00pm 15.1 S 10 12 1017.6 - 0.0 - - - - - - -
24/02:30pm 16.6 SSW 9 13 1017.5 - 0.0 - - - - - - -
24/02:00pm 16.5 SSW 9 13 1017.2 - 0.0 - - - - - - -
24/01:30pm 15.8 SW 9 16 1017.2 - 0.0 - - - - - - -
24/01:00pm 15.4 SW 7 9 1017.3 - 0.0 - - - - - - -
24/12:30pm 16.1 WSW 11 16 1017.4 - 0.0 - - - - - - -
24/12:00pm 15.9 SW 10 13 1017.4 - 0.0 - - - - - - -
24/11:30am 15.4 WSW 11 16 1017.2 - 0.0 - - - - - - -
24/11:00am 16.4 SW 11 14 1016.9 - 0.0 - - - - - - -
24/10:30am 15.3 SW 16 21 1016.5 - 0.0 - - - - - - -
24/10:00am 15.5 WSW 11 16 1016.0 - 0.0 - - - - - - -
24/09:30am 15.1 WSW 12 17 1015.6 - 0.0 - - - - - - -
24/09:00am 14.7 W 9 14 1015.2 - 0.0 - - - - - - -
24/08:30am 13.4 W 8 12 1014.5 - 0.0 - - - - - - -
24/08:00am 13.2 W 7 11 1013.6 - 0.0 - - - - - - -
24/07:30am 12.9 WNW 9 14 1012.3 - 0.0 - - - - - - -
24/07:00am 13.9 WNW 12 18 1011.8 - 0.0 - - - - - - -
24/06:30am 14.4 NW 8 13 1011.0 - 0.0 - - - - - - -
24/06:00am 14.1 NW 6 10 1010.6 - 0.0 - - - - - - -
24/05:30am 13.9 NNW 7 9 1010.1 - 0.0 - - - - - - -
24/05:00am 13.2 NNW 5 7 1010.0 - 0.0 - - - - - - -
24/04:30am 12.7 NNW 4 5 1009.7 - 0.0 - - - - - - -
24/04:00am 12.1 NW 5 6 1009.5 - 0.0 - - - - - - -
24/03:30am 13.5 NNW 8 12 1009.4 - 0.0 - - - - - - -
24/03:00am 11.9 NNW 5 8 1009.7 - 0.0 - - - - - - -
24/02:30am 11.7 NNW 5 8 1010.0 - 0.0 - - - - - - -
24/02:00am 11.0 NW 3 5 1010.4 - 0.0 - - - - - - -
24/01:30am 11.0 N 4 5 1010.6 - 0.0 - - - - - - -
24/01:00am 10.5 NNW 2 3 1010.6 - 0.0 - - - - - - -
24/12:30am 10.9 NNW 2 3 1011.0 - 0.0 - - - - - - -
24/12:00am 11.4 NNW 3 4 1011.3 - 0.0 - - - - - - -
 
Date/Time
EST
Temp

°C
Wind Pressure Rain
since 9am
mm
Weather Cloud Vis
km
Sea
Height
m
Swell
Dir
 
Speed
knots
Gust
knots
hPa Trend Height
m
Period
s
Dir
23/11:30pm 11.3 NNW 4 5 1011.7 - 0.0 - - - - - - -
23/11:00pm 11.8 NNW 3 4 1012.1 - 0.0 - - - - - - -
23/10:30pm 12.5 NNW 3 4 1012.4 - 0.0 - - - - - - -
23/10:00pm 12.9 NW 4 6 1012.5 - 0.0 - - - - - - -
23/09:30pm 13.2 NNW 3 5 1012.7 - 0.0 - - - - - - -
23/09:00pm 14.0 N 5 6 1012.7 - 0.0 - - - - - - -
23/08:30pm 14.4 N 4 6 1012.9 - 0.0 - - - - - - -
23/08:00pm 14.5 N 5 7 1013.1 - 0.0 - - - - - - -
23/07:30pm 14.7 N 3 4 1013.1 - 0.0 - - - - - - -
23/07:00pm 14.4 NW 2 2 1013.0 - 0.0 - - - - - - -
23/06:30pm 14.7 NW 2 2 1012.9 - 0.0 - - - - - - -
23/06:00pm 15.1 WNW 2 3 1012.9 - 0.0 - - - - - - -
23/05:30pm 15.7 WNW 4 6 1012.9 - 0.0 - - - - - - -
23/05:00pm 16.2 WNW 5 7 1012.9 - 0.0 - - - - - - -
23/04:30pm 17.8 WNW 7 11 1013.2 - 0.0 - - - - - - -
23/04:00pm 18.0 WNW 7 11 1013.4 - 0.0 - - - - - - -
23/03:30pm 18.1 WNW 8 12 1013.5 - 0.0 - - - - - - -
23/03:00pm 17.9 WNW 6 8 1013.6 - 0.0 - - - - - - -
23/02:30pm 17.2 WNW 7 11 1013.7 - 0.0 - - - - - - -
23/02:00pm 17.3 WNW 6 9 1013.9 - 0.0 - - - - - - -
23/01:30pm 16.7 WNW 5 7 1014.2 - 0.0 - - - - - - -
23/01:00pm 17.4 NW 6 10 1014.9 - 0.0 - - - - - - -
23/12:30pm 16.4 WNW 6 9 1015.4 - 0.0 - - - - - - -
23/12:00pm 16.4 WNW 7 10 1016.1 - 0.0 - - - - - - -
23/11:30am 16.0 WNW 7 9 1016.3 - 0.0 - - - - - - -
23/11:00am 15.2 WNW 6 9 1016.5 - 0.0 - - - - - - -
23/10:30am 14.6 NW 5 7 1016.7 - 0.0 - - - - - - -
23/10:00am 13.9 NW 5 6 1017.0 - 0.0 - - - - - - -
23/09:30am 13.0 NW 4 6 1017.2 - 0.0 - - - - - - -
23/09:00am 11.5 NW 4 5 1017.4 - 0.0 - - - - - - -
23/08:30am 10.1 NW 3 4 1017.2 - 0.0 - - - - - - -
23/08:00am 8.1 W 4 5 1016.8 - 0.0 - - - - - - -
23/07:30am 7.1 NW 5 6 1016.7 - 0.0 - - - - - - -
23/07:00am 6.7 WNW 3 4 1016.6 - 0.0 - - - - - - -
23/06:30am 6.3 WNW 2 3 1016.6 - 0.0 - - - - - - -
23/06:00am 7.0 WNW 5 6 1016.6 - 0.0 - - - - - - -
23/05:30am 7.5 WNW 5 7 1016.6 - 0.0 - - - - - - -
23/05:00am 7.6 CALM 0 0 1016.4 - 0.0 - - - - - - -
23/04:30am 7.8 WNW 2 3 1016.1 - 0.0 - - - - - - -
23/04:00am 8.3 WNW 2 3 1016.1 - 0.0 - - - - - - -
23/03:30am 8.7 CALM 0 2 1016.1 - 0.0 - - - - - - -
23/03:00am 9.1 WNW 4 4 1016.5 - 0.0 - - - - - - -
23/02:30am 9.4 WNW 3 4 1016.8 - 0.0 - - - - - - -
23/02:00am 10.0 W 1 1 1017.0 - 0.0 - - - - - - -
23/01:30am 10.7 WNW 4 4 1017.1 - 0.0 - - - - - - -
23/01:00am 11.5 WNW 3 4 1017.3 - 0.0 - - - - - - -
23/12:30am 11.5 WNW 2 3 1017.5 - 0.0 - - - - - - -
23/12:00am 11.7 WNW 4 5 1017.5 - 0.0 - - - - - - -
 
Date/Time
EST
Temp

°C
Wind Pressure Rain
since 9am
mm
Weather Cloud Vis
km
Sea
Height
m
Swell
Dir
 
Speed
knots
Gust
knots
hPa Trend Height
m
Period
s
Dir
22/11:30pm 11.8 WNW 2 2 1017.7 - 0.0 - - - - - - -
22/11:00pm 12.1 W 4 5 1017.8 - 0.0 - - - - - - -
22/10:30pm 12.8 NW 3 3 1018.2 - 0.0 - - - - - - -
22/10:00pm 13.0 WNW 2 3 1018.2 - 0.0 - - - - - - -
22/09:30pm 13.1 W 2 3 1018.0 - 0.0 - - - - - - -
22/09:00pm 13.0 WSW 3 3 1017.6 - 0.0 - - - - - - -
22/08:30pm 13.1 WSW 2 3 1017.5 - 0.0 - - - - - - -
22/08:00pm 13.1 WSW 4 4 1017.4 - 0.0 - - - - - - -
22/07:30pm 13.7 WSW 3 3 1017.2 - 0.0 - - - - - - -

Other Formats:

Comma delimited format used in spreadsheet applications
http://www.bom.gov.au/fwo/IDV60701/IDV60701.94857.axf

JavaScript Object Notation format (JSON) in row-major order
http://www.bom.gov.au/fwo/IDV60701/IDV60701.94857.json